sensor_id;sensor_type;location;lat;lon;timestamp;pressure;altitude;pressure_sealevel;temperature;humidity
39715;BME280;54166;53.172;-6.552;2023-01-29T00:01:54;100531.70;;;17.03;45.20
39715;BME280;54166;53.172;-6.552;2023-01-29T00:04:22;100525.29;;;17.32;44.88
39715;BME280;54166;53.172;-6.552;2023-01-29T00:06:50;100522.78;;;17.30;44.60
39715;BME280;54166;53.172;-6.552;2023-01-29T00:09:18;100516.19;;;17.30;44.23
39715;BME280;54166;53.172;-6.552;2023-01-29T00:11:45;100512.83;;;17.30;43.78
39715;BME280;54166;53.172;-6.552;2023-01-29T00:14:13;100506.36;;;16.98;43.52
39715;BME280;54166;53.172;-6.552;2023-01-29T00:16:40;100507.11;;;16.97;43.20
39715;BME280;54166;53.172;-6.552;2023-01-29T00:19:07;100507.90;;;17.32;43.02
39715;BME280;54166;53.172;-6.552;2023-01-29T00:21:34;100511.61;;;17.34;42.46
39715;BME280;54166;53.172;-6.552;2023-01-29T00:24:02;100511.66;;;17.36;42.60
39715;BME280;54166;53.172;-6.552;2023-01-29T00:26:29;100514.28;;;17.40;42.78
39715;BME280;54166;53.172;-6.552;2023-01-29T00:28:56;100511.34;;;17.41;42.95
39715;BME280;54166;53.172;-6.552;2023-01-29T00:31:24;100515.98;;;17.43;43.14
39715;BME280;54166;53.172;-6.552;2023-01-29T00:33:51;100515.84;;;17.44;43.25
39715;BME280;54166;53.172;-6.552;2023-01-29T00:36:19;100511.91;;;17.46;43.28
39715;BME280;54166;53.172;-6.552;2023-01-29T00:38:53;100512.06;;;17.10;42.89
39715;BME280;54166;53.172;-6.552;2023-01-29T00:41:20;100515.74;;;17.04;41.97
39715;BME280;54166;53.172;-6.552;2023-01-29T00:43:47;100519.17;;;17.35;42.12
39715;BME280;54166;53.172;-6.552;2023-01-29T00:46:15;100525.34;;;17.34;42.17
39715;BME280;54166;53.172;-6.552;2023-01-29T00:48:42;100529.24;;;17.37;42.52
39715;BME280;54166;53.172;-6.552;2023-01-29T00:51:09;100526.03;;;17.06;41.92
39715;BME280;54166;53.172;-6.552;2023-01-29T00:53:37;100526.51;;;17.42;41.69
39715;BME280;54166;53.172;-6.552;2023-01-29T00:56:04;100520.92;;;17.46;41.45
39715;BME280;54166;53.172;-6.552;2023-01-29T00:58:32;100512.99;;;17.47;41.02
39715;BME280;54166;53.172;-6.552;2023-01-29T01:01:00;100510.52;;;17.48;40.76
39715;BME280;54166;53.172;-6.552;2023-01-29T01:03:28;100505.48;;;17.44;40.55
39715;BME280;54166;53.172;-6.552;2023-01-29T01:06:04;100501.59;;;17.10;40.39
39715;BME280;54166;53.172;-6.552;2023-01-29T01:08:31;100497.65;;;17.43;40.17
39715;BME280;54166;53.172;-6.552;2023-01-29T01:11:02;100495.13;;;17.41;40.06
39715;BME280;54166;53.172;-6.552;2023-01-29T01:13:32;100495.37;;;17.40;39.86
39715;BME280;54166;53.172;-6.552;2023-01-29T01:15:59;100496.31;;;17.39;39.71
39715;BME280;54166;53.172;-6.552;2023-01-29T01:18:28;100495.11;;;17.38;39.62
39715;BME280;54166;53.172;-6.552;2023-01-29T01:20:57;100499.14;;;17.38;39.43
39715;BME280;54166;53.172;-6.552;2023-01-29T01:23:24;100496.87;;;17.37;39.37
39715;BME280;54166;53.172;-6.552;2023-01-29T01:25:52;100496.15;;;17.35;39.23
39715;BME280;54166;53.172;-6.552;2023-01-29T01:28:19;100491.17;;;17.02;39.12
39715;BME280;54166;53.172;-6.552;2023-01-29T01:30:47;100485.54;;;17.34;39.04
39715;BME280;54166;53.172;-6.552;2023-01-29T01:33:13;100477.21;;;17.33;38.90
39715;BME280;54166;53.172;-6.552;2023-01-29T01:35:41;100469.43;;;17.35;38.79
39715;BME280;54166;53.172;-6.552;2023-01-29T01:38:08;100469.47;;;17.00;38.62
39715;BME280;54166;53.172;-6.552;2023-01-29T01:40:35;100467.43;;;16.99;38.53
39715;BME280;54166;53.172;-6.552;2023-01-29T01:43:05;100462.39;;;17.31;38.44
39715;BME280;54166;53.172;-6.552;2023-01-29T01:45:33;100463.11;;;17.29;38.38
39715;BME280;54166;53.172;-6.552;2023-01-29T01:48:04;100459.37;;;17.29;38.26
39715;BME280;54166;53.172;-6.552;2023-01-29T01:50:35;100455.71;;;17.28;38.26
39715;BME280;54166;53.172;-6.552;2023-01-29T01:53:06;100458.33;;;17.29;38.11
39715;BME280;54166;53.172;-6.552;2023-01-29T01:55:35;100459.50;;;17.29;38.02
39715;BME280;54166;53.172;-6.552;2023-01-29T01:58:07;100461.53;;;16.95;37.86
39715;BME280;54166;53.172;-6.552;2023-01-29T02:00:36;100459.17;;;17.27;37.87
39715;BME280;54166;53.172;-6.552;2023-01-29T02:03:05;100463.25;;;17.25;37.81
39715;BME280;54166;53.172;-6.552;2023-01-29T02:05:35;100463.67;;;17.24;37.68
39715;BME280;54166;53.172;-6.552;2023-01-29T02:08:04;100464.80;;;17.22;37.63
39715;BME280;54166;53.172;-6.552;2023-01-29T02:10:38;100463.17;;;17.24;37.57
39715;BME280;54166;53.172;-6.552;2023-01-29T02:13:07;100460.19;;;17.21;37.52
39715;BME280;54166;53.172;-6.552;2023-01-29T02:15:35;100463.55;;;17.19;37.50
39715;BME280;54166;53.172;-6.552;2023-01-29T02:18:02;100462.48;;;17.17;37.38
39715;BME280;54166;53.172;-6.552;2023-01-29T02:20:31;100465.26;;;16.84;37.26
39715;BME280;54166;53.172;-6.552;2023-01-29T02:23:13;100463.52;;;17.16;37.21
39715;BME280;54166;53.172;-6.552;2023-01-29T02:26:24;100461.99;;;18.16;37.20
39715;BME280;54166;53.172;-6.552;2023-01-29T02:29:00;100460.87;;;17.04;37.21
39715;BME280;54166;53.172;-6.552;2023-01-29T02:31:36;100458.08;;;17.05;37.28
39715;BME280;54166;53.172;-6.552;2023-01-29T02:34:12;100455.31;;;17.05;37.15
39715;BME280;54166;53.172;-6.552;2023-01-29T02:36:46;100455.41;;;17.03;37.14
39715;BME280;54166;53.172;-6.552;2023-01-29T02:39:22;100447.39;;;17.02;37.13
39715;BME280;54166;53.172;-6.552;2023-01-29T02:41:59;100438.23;;;17.00;37.07
39715;BME280;54166;53.172;-6.552;2023-01-29T02:44:33;100434.42;;;16.99;37.07
39715;BME280;54166;53.172;-6.552;2023-01-29T02:47:06;100427.34;;;16.96;37.05
39715;BME280;54166;53.172;-6.552;2023-01-29T02:49:43;100424.06;;;16.62;36.96
39715;BME280;54166;53.172;-6.552;2023-01-29T02:52:16;100424.41;;;16.95;36.82
39715;BME280;54166;53.172;-6.552;2023-01-29T02:54:49;100420.25;;;16.94;36.87
39715;BME280;54166;53.172;-6.552;2023-01-29T02:57:20;100418.46;;;16.93;36.72
39715;BME280;54166;53.172;-6.552;2023-01-29T02:59:53;100413.72;;;16.94;36.55
39715;BME280;54166;53.172;-6.552;2023-01-29T03:02:27;100408.32;;;16.92;36.53
39715;BME280;54166;53.172;-6.552;2023-01-29T03:05:00;100407.54;;;16.88;36.68
39715;BME280;54166;53.172;-6.552;2023-01-29T03:07:33;100403.62;;;16.86;36.67
39715;BME280;54166;53.172;-6.552;2023-01-29T03:10:02;100396.89;;;16.85;36.57
39715;BME280;54166;53.172;-6.552;2023-01-29T03:12:34;100396.41;;;17.24;36.54
39715;BME280;54166;53.172;-6.552;2023-01-29T03:15:08;100391.93;;;16.83;36.52
39715;BME280;54166;53.172;-6.552;2023-01-29T03:17:42;100384.86;;;16.80;36.56
39715;BME280;54166;53.172;-6.552;2023-01-29T03:20:15;100381.40;;;16.79;36.54
39715;BME280;54166;53.172;-6.552;2023-01-29T03:22:49;100384.41;;;16.77;36.49
39715;BME280;54166;53.172;-6.552;2023-01-29T03:25:20;100385.23;;;16.75;36.47
39715;BME280;54166;53.172;-6.552;2023-01-29T03:27:53;100390.37;;;16.76;36.44
39715;BME280;54166;53.172;-6.552;2023-01-29T03:30:24;100384.68;;;16.73;36.39
39715;BME280;54166;53.172;-6.552;2023-01-29T03:32:55;100386.90;;;16.72;36.39
39715;BME280;54166;53.172;-6.552;2023-01-29T03:35:26;100386.15;;;16.71;36.25
39715;BME280;54166;53.172;-6.552;2023-01-29T03:37:55;100385.47;;;17.08;36.17
39715;BME280;54166;53.172;-6.552;2023-01-29T03:40:22;100383.10;;;16.67;35.94
39715;BME280;54166;53.172;-6.552;2023-01-29T03:42:58;100383.56;;;17.06;35.76
39715;BME280;54166;53.172;-6.552;2023-01-29T03:45:36;100377.98;;;16.62;35.68
39715;BME280;54166;53.172;-6.552;2023-01-29T03:48:09;100378.29;;;16.61;35.57
39715;BME280;54166;53.172;-6.552;2023-01-29T03:50:43;100375.99;;;16.60;35.40
39715;BME280;54166;53.172;-6.552;2023-01-29T03:53:24;100370.98;;;16.97;35.43
39715;BME280;54166;53.172;-6.552;2023-01-29T03:55:59;100366.19;;;16.55;35.55
39715;BME280;54166;53.172;-6.552;2023-01-29T03:58:34;100359.48;;;16.53;35.40
39715;BME280;54166;53.172;-6.552;2023-01-29T04:01:10;100353.29;;;16.53;35.39
39715;BME280;54166;53.172;-6.552;2023-01-29T04:03:45;100349.39;;;16.51;35.42
39715;BME280;54166;53.172;-6.552;2023-01-29T04:06:18;100346.48;;;16.49;35.37
39715;BME280;54166;53.172;-6.552;2023-01-29T04:08:49;100344.46;;;16.48;35.32
39715;BME280;54166;53.172;-6.552;2023-01-29T04:11:21;100337.35;;;16.86;35.25
39715;BME280;54166;53.172;-6.552;2023-01-29T04:13:49;100332.71;;;16.47;35.11
39715;BME280;54166;53.172;-6.552;2023-01-29T04:16:21;100329.12;;;16.12;35.15
39715;BME280;54166;53.172;-6.552;2023-01-29T04:18:50;100324.80;;;16.46;35.01
39715;BME280;54166;53.172;-6.552;2023-01-29T04:21:18;100317.69;;;17.18;35.13
39715;BME280;54166;53.172;-6.552;2023-01-29T04:23:45;100318.68;;;16.43;35.18
39715;BME280;54166;53.172;-6.552;2023-01-29T04:26:23;100319.77;;;16.42;35.18
39715;BME280;54166;53.172;-6.552;2023-01-29T04:29:05;100322.62;;;16.39;35.16
39715;BME280;54166;53.172;-6.552;2023-01-29T04:31:43;100317.52;;;16.76;35.29
39715;BME280;54166;53.172;-6.552;2023-01-29T04:34:20;100315.24;;;16.33;35.19
39715;BME280;54166;53.172;-6.552;2023-01-29T04:37:00;100311.26;;;16.68;35.25
39715;BME280;54166;53.172;-6.552;2023-01-29T04:39:37;100311.12;;;16.67;35.25
39715;BME280;54166;53.172;-6.552;2023-01-29T04:42:11;100310.20;;;16.27;35.16
39715;BME280;54166;53.172;-6.552;2023-01-29T04:44:45;100310.34;;;16.66;35.21
39715;BME280;54166;53.172;-6.552;2023-01-29T04:47:20;100308.28;;;16.25;35.22
39715;BME280;54166;53.172;-6.552;2023-01-29T04:49:58;100309.60;;;16.20;35.24
39715;BME280;54166;53.172;-6.552;2023-01-29T04:52:33;100306.21;;;16.20;35.13
